Record high temperature 38.3°C Record low temperature -13.1°C Record high gust 62.9 km/h Record high average 34.6 km/h Record daily rain 34.8 mm Record low windchill -41.4°C Record high barometer 1044.6 hPa Record low barometer 978.5 hPa
Daily high pressure 1029.4 hPa Daily low pressure 1014.2 hPa Daily low windchill 0.8°C Daily high heat index 13.8°C Daily high gust speed 13.3 kmh SSO Daily high average speed 7.5 kmh SO
Wetterdaten
LETZTE AKTUALISIERUNG UM: 20:15 DATUM: 21 Februar 2024, time of next update: 20:30
Aktuelles WetterClear/Night Aktuelle Temperatur 10.0°C (50.0°F), Apparent temp 9.4°C
Höchsttemperatur (seit Mitternacht)13.8°C um: 14:52 Tiefsttemperatur (seit Mitternacht)1.9°C um: 06:55
Windgeschwindigkeit (10 Minuten )0.2 kmh (0.1 kts) Windrichtung (Dir) (10 Minuten )ESE (112°)
Windchill Temperatur 10.0°C Windspitzen (letzte Std)5.0 kmh (2.7 kts) um: 19:28
Windspitzen (seit Mitternacht)13.3 kmh (7.2 kts) um: 12:54 Höchstes Windmittel / Minute (seit Mitternacht)7.5 kmh (4.1 kts) um: 12:54
Regenmenge (letzte Std)0.0 mm Regenmenge (seit Mitternacht)0.0 mm (0.00 in.)---
Regenmenge diesen Monat 33.2 mm (1.31 in.) Regenmenge seit Jahresbeginn 67.4 mm (2.65 in.)
Höchste Regenmenge pro Minute (letzte Std)0.0 mm/min Höchste Regenmenge pro Stunde (letzte 6 Std)0.0 mm/stunde
Regenmenge Gestern 0.0 mm Taupunkt 5.0°C (Wet Bulb :7.7°C )
Luftfeuchtigkeit 71 %, Humidex 9.3°C Aktueller Luftdruck (auf Meereshöhe bezogen)1014.2 hPa
Luftdrucktendenz -0.4 hPa (letzte Std) Trend (letzte 1 Std)gleichbleibend
Luftdrucktendenz (letzte 12 Std)-10.9 hPa Luftdrucktendenz (letzte 6 Std)-5.1 hPa
Maximum Soil temperature (seit Mitternacht) 17.2°C Minimum Soil temperature(seit Mitternacht)7.8°C
Current Soil temperature 17°C
Current Solar 0 W/m²
Maximum solar (seit Mitternacht) 352 W/m² Minimum solar(seit Mitternacht)0 W/m²
Current 00:00 hours of sunshine today, current sky: Nicht bestimmbar (Nachtzeit)/Dry/Clear
Sunshine hours for the year: 63:08 hrs Sunshine hours for the month: 07:34 hrs
Current evapotranspiration rate 1.1 mm per day. Yesterday's reading 0.8


Latest Web Cam Image


Weather report/warning/Metars

Stuttgart-Echterdingen, Germany (EDDS) 48-41N 009-13E 391M
Feb 21, 2024 - 01:50 PM EST / 2024.02.21 1850 UTC
Wind: from the S (190 degrees) at 7 MPH (6 KT):0
Visibility: greater than 7 mile(s):0
Temperature: 50 F (10 C)
Dew Point: 37 F (3 C)
Relative Humidity: 61%
Pressure (altimeter): 29.91 in. Hg (1013 hPa)
ob: EDDS 211850Z AUTO 19006KT CAVOK 10/03 Q1013 NOSIG
cycle: 19
Augsburg, Germany (EDMA) 48-26N 010-56E 463M
Feb 21, 2024 - 01:50 PM EST / 2024.02.21 1850 UTC
Wind: from the S (180 degrees) at 6 MPH (5 KT) (direction variable):0
Visibility: greater than 7 mile(s):0
Temperature: 46 F (8 C)
Dew Point: 32 F (0 C)
Relative Humidity: 56%
Pressure (altimeter): 29.97 in. Hg (1015 hPa)
ob: EDMA 211850Z 18005KT 150V210 CAVOK 08/00 Q1015
cycle: 19
Nuernberg, Germany (EDDN) 49-30N 011-03E 318M
Feb 21, 2024 - 01:50 PM EST / 2024.02.21 1850 UTC
Wind: from the SE (140 degrees) at 8 MPH (7 KT):0
Visibility: greater than 7 mile(s):0
Temperature: 48 F (9 C)
Dew Point: 35 F (2 C)
Relative Humidity: 61%
Pressure (altimeter): 29.91 in. Hg (1013 hPa)
ob: EDDN 211850Z AUTO 14007KT CAVOK 09/02 Q1013 NOSIG
cycle: 19
Berlin-Tegel, Germany (EDDT) 52-34N 013-19E 37M
Nov 09, 2020 - 01:50 AM EST / 2020.11.09 0650 UTC
Wind: from the E (090 degrees) at 7 MPH (6 KT) (direction variable):0
Visibility: 1 mile(s):0
Sky conditions: overcast
Weather: mist
Temperature: 42 F (6 C)
Dew Point: 41 F (5 C)
Relative Humidity: 93%
Pressure (altimeter): 30.33 in. Hg (1027 hPa)
ob: EDDT 090650Z 09006KT 050V120 3000 BR OVC003 06/05 Q1027
cycle: 7
Friedrichshafen, Germany (EDNY) 47-40N 009-31E 424M
Feb 21, 2024 - 01:50 PM EST / 2024.02.21 1850 UTC
Wind: Variable at 1 MPH (1 KT):0
Visibility: greater than 7 mile(s):0
Temperature: 44 F (7 C)
Dew Point: 35 F (2 C)
Relative Humidity: 70%
Pressure (altimeter): 30.00 in. Hg (1016 hPa)
ob: EDNY 211850Z VRB01KT CAVOK 07/02 Q1016
cycle: 19
Hamburg-Finkenwerder, Germany (EDHI) 53-32N 009-50E 13M
Feb 21, 2024 - 01:50 PM EST / 2024.02.21 1850 UTC
Wind: from the SSE (150 degrees) at 6 MPH (5 KT) (direction variable):0
Visibility: greater than 7 mile(s):0
Sky conditions: overcast
Temperature: 48 F (9 C)
Dew Point: 41 F (5 C)
Relative Humidity: 75%
Pressure (altimeter): 29.68 in. Hg (1005 hPa)
ob: EDHI 211850Z AUTO 15005KT 120V190 9999 // OVC140/// 09/05 Q1005
cycle: 19
Amsterdam Airport Schiphol, Netherlands (EHAM) 52-18N 004-46E -2M
Feb 21, 2024 - 01:55 PM EST / 2024.02.21 1855 UTC
Wind: from the S (190 degrees) at 22 MPH (19 KT):0
Visibility: 3 mile(s):0
Sky conditions: mostly cloudy
Weather: light drizzle, rain
Temperature: 48 F (9 C)
Dew Point: 48 F (9 C)
Relative Humidity: 100%
Pressure (altimeter): 29.53 in. Hg (1000 hPa)
ob: EHAM 211855Z 19019KT 5000 -DZRA FEW006 SCT007 BKN009 09/09 Q1000 TEMPO BKN011
cycle: 19
Stockholm/Skavsta, Sweden (ESKN) 58-47N 016-55E
Feb 21, 2024 - 01:50 PM EST / 2024.02.21 1850 UTC
Wind: from the WSW (250 degrees) at 5 MPH (4 KT):0
Visibility: 1 mile(s):0
Sky conditions: overcast
Weather: patches of fog
Temperature: 37 F (3 C)
Dew Point: 37 F (3 C)
Relative Humidity: 100%
Pressure (altimeter): 29.59 in. Hg (1002 hPa)
ob: ESKN 211850Z 25004KT 1900 R08/P2000N R26/P2000N BCFG OVC003 03/03 Q1002
cycle: 19
Ramstein, Germany (ETAR) 49-26N 007-36E 237M
Feb 21, 2024 - 01:55 PM EST / 2024.02.21 1855 UTC
Wind: from the SSW (200 degrees) at 7 MPH (6 KT):0
Visibility: greater than 7 mile(s):0
Sky conditions: clear
Temperature: 49.8 F (9.9 C)
Dew Point: 36.1 F (2.3 C)
Relative Humidity: 59%
Pressure (altimeter): 29.86 in. Hg (1011 hPa)
ob: ETAR 211855Z AUTO 20006KT 9999 CLR 10/02 A2986 RMK AO2 SLP119 T00990023 
cycle: 19
Laupheim, Germany (ETHL) 48-13N 009-55E 550M
Feb 21, 2024 - 01:20 PM EST / 2024.02.21 1820 UTC
Wind: from the SW (230 degrees) at 6 MPH (5 KT):0
Visibility: greater than 7 mile(s):0
Sky conditions: mostly cloudy
Temperature: 46 F (8 C)
Dew Point: 35 F (2 C)
Relative Humidity: 65%
Pressure (altimeter): 29.97 in. Hg (1015 hPa)
ob: ETHL 211820Z 23005KT 9999 SCT090 SCT140 BKN220 08/02 Q1015 BLU+BLU
cycle: 18
Gran Canaria - Canary Islands, Spain (GCLP) 27-56N 015-23W 47M
Feb 21, 2024 - 02:00 PM EST / 2024.02.21 1900 UTC
Wind: from the N (010 degrees) at 18 MPH (16 KT):0
Visibility: greater than 7 mile(s):0
Sky conditions: mostly clear
Temperature: 68 F (20 C)
Dew Point: 59 F (15 C)
Relative Humidity: 72%
Pressure (altimeter): 30.24 in. Hg (1024 hPa)
ob: GCLP 211900Z 01016KT 9999 FEW030 20/15 Q1024 NOSIG
cycle: 19
Hurguada, Egypt (HEGN) 27-09N 033-43E 14M
Feb 21, 2024 - 01:00 PM EST / 2024.02.21 1800 UTC
Wind: from the NNW (330 degrees) at 13 MPH (11 KT):0
Visibility: greater than 7 mile(s):0
Temperature: 68 F (20 C)
Dew Point: 42 F (6 C)
Relative Humidity: 39%
Pressure (altimeter): 30.03 in. Hg (1017 hPa)
ob: HEGN 211800Z 33011KT CAVOK 20/06 Q1017 NOSIG
cycle: 18
Chicago / Meigs, IL, United States (KCGX) 41-52N 087-36W
Jun 18, 2008 - 01:45 PM EDT / 2008.06.18 1745 UTC
Wind: from the NW (310 degrees) at 6 MPH (5 KT):0
Visibility: 15 mile(s):0
Sky conditions: overcast
Temperature: 57 F (14 C)
Dew Point: 51 F (11 C)
Relative Humidity: 82%
Pressure (altimeter): 29.89 in. Hg (1012 hPa)
ob: KCGX 181745Z 31005KT 15SM BKN014 OVC030 14/11 A2989
cycle: 18
Paris-Aeroport Charles De Gaulle, France (LFPG) 49-01N 002-32E 109M
Feb 21, 2024 - 02:00 PM EST / 2024.02.21 1900 UTC
Wind: from the SSW (210 degrees) at 21 MPH (18 KT):0
Visibility: 3 mile(s):0
Sky conditions: overcast
Weather: light rain
Temperature: 50 F (10 C)
Dew Point: 48 F (9 C)
Relative Humidity: 93%
Pressure (altimeter): 29.77 in. Hg (1008 hPa)
ob: LFPG 211900Z 21018KT 6000 -RA BKN008 OVC016 10/09 Q1008 TEMPO 4000 RA
cycle: 19
Hyeres, France (LFTH) 43-06N 006-09E 4M
Feb 21, 2024 - 02:00 PM EST / 2024.02.21 1900 UTC
Wind: from the NW (320 degrees) at 3 MPH (3 KT):0
Visibility: greater than 7 mile(s):0
Sky conditions: overcast
Temperature: 51 F (11 C)
Dew Point: 46 F (8 C)
Relative Humidity: 81%
Pressure (altimeter): 30.18 in. Hg (1022 hPa)
ob: LFTH 211900Z AUTO 32003KT 9999 FEW021 BKN028 OVC250 11/08 Q1022 BECMG 22010KT
cycle: 19



Die Wetterdaten werden alle 2 Minuten gespeichert, aber die Datenübertragung findet jede Minute statt. Die beste Ansicht wird in einer Auflösung von 800 x 600 und "True colour" erzielt. Linie zeigt die relative Luftfeuchtigkeit an.

Drücken Sie bitte auf "Aktualisieren" in Ihrem Browser, um die aktuellsten Daten zu erhalten.

Klicken Sie hier, um eine Übersicht der Durchschnitts- u. Extremwerte für den Monat zu erhalten
Created by "Weather Display" software version 10.37S151 at this start time/date 09:31:39 21.02.2024